Time;durP1;ratioP1;P1;durP2;ratioP2;P2;SDS_P1;SDS_P2;PMS_P1;PMS_P2;Temp;Humidity;BMP_temperature;BMP_pressure;BME280_temperature;BME280_humidity;BME280_pressure;Samples;Min_cycle;Max_cycle;Signal;HPM_P1;HPM_P2
2021/08/18 00:00:27;;;;;;;29.05;21.83;;;15.00;91.80;;;;;;5052474;28;20053;-78
2021/08/18 00:02:55;;;;;;;27.70;20.40;;;15.00;91.90;;;;;;5050722;28;20061;-78
2021/08/18 00:05:24;;;;;;;27.85;20.63;;;15.00;92.00;;;;;;5052345;28;20044;-78
2021/08/18 00:07:52;;;;;;;27.67;20.85;;;15.00;92.10;;;;;;5033957;28;20041;-78
2021/08/18 00:10:19;;;;;;;18.17;14.60;;;14.90;92.10;;;;;;5032272;28;20041;-78
2021/08/18 00:12:47;;;;;;;19.65;14.60;;;14.90;92.40;;;;;;5030507;28;20495;-77
2021/08/18 00:15:17;;;;;;;19.80;13.75;;;15.00;92.40;;;;;;5032031;28;20058;-77
2021/08/18 00:17:45;;;;;;;15.10;11.48;;;14.90;92.50;;;;;;5032249;28;20399;-77
2021/08/18 00:20:13;;;;;;;17.52;12.80;;;14.90;92.60;;;;;;5030793;28;20406;-77
2021/08/18 00:22:41;;;;;;;17.90;11.00;;;14.90;92.70;;;;;;5031949;28;20049;-77
2021/08/18 00:25:09;;;;;;;14.48;10.68;;;14.90;92.70;;;;;;5040250;28;20057;-77
2021/08/18 00:27:37;;;;;;;11.98;9.05;;;14.90;92.80;;;;;;5051887;28;20045;-75
2021/08/18 00:30:06;;;;;;;16.58;9.57;;;14.90;92.80;;;;;;5051951;28;20060;-74
2021/08/18 00:32:33;;;;;;;20.08;9.57;;;14.90;92.80;;;;;;5052066;28;20067;-74
2021/08/18 00:35:01;;;;;;;17.35;10.38;;;14.90;92.80;;;;;;5051741;28;20068;-74
2021/08/18 00:37:29;;;;;;;17.85;11.60;;;14.90;92.80;;;;;;5051872;28;20041;-75
2021/08/18 00:39:56;;;;;;;16.85;11.02;;;14.90;92.80;;;;;;5051923;28;20056;-75
2021/08/18 00:42:24;;;;;;;21.05;14.23;;;14.80;92.90;;;;;;5050837;28;20044;-75
2021/08/18 00:44:53;;;;;;;22.35;13.43;;;14.90;92.90;;;;;;5051758;28;20409;-76
2021/08/18 00:47:21;;;;;;;20.38;11.68;;;14.90;92.90;;;;;;5050612;28;20052;-75
2021/08/18 00:49:49;;;;;;;18.98;11.65;;;14.80;92.90;;;;;;5052193;28;20049;-75
2021/08/18 00:52:16;;;;;;;15.35;11.43;;;14.80;92.90;;;;;;5049490;28;20037;-75
2021/08/18 00:54:50;;;;;;;21.08;11.43;;;14.80;92.90;;;;;;5035606;28;20046;-75
2021/08/18 00:57:18;;;;;;;19.13;11.02;;;14.80;92.80;;;;;;5035724;28;20041;-75
2021/08/18 00:59:46;;;;;;;17.63;11.23;;;14.80;92.80;;;;;;5035934;28;20049;-76
2021/08/18 01:02:14;;;;;;;14.32;10.68;;;14.80;92.70;;;;;;5035804;28;20053;-75
2021/08/18 01:04:42;;;;;;;18.48;10.57;;;14.80;92.70;;;;;;5035178;28;20061;-76
2021/08/18 01:07:11;;;;;;;17.67;11.82;;;14.80;92.60;;;;;;5035350;28;20041;-76
2021/08/18 01:09:39;;;;;;;17.48;10.93;;;14.80;92.60;;;;;;5034347;28;20049;-76
2021/08/18 01:12:07;;;;;;;15.63;10.32;;;14.80;92.50;;;;;;5035354;28;20045;-76
2021/08/18 01:14:34;;;;;;;15.90;10.93;;;14.80;92.50;;;;;;5035364;28;20344;-76
2021/08/18 01:17:02;;;;;;;16.17;11.13;;;14.80;92.40;;;;;;5033702;28;20061;-76
2021/08/18 01:19:30;;;;;;;17.67;11.07;;;14.80;92.40;;;;;;5035329;28;20478;-76
2021/08/18 01:21:57;;;;;;;14.93;9.20;;;14.80;92.40;;;;;;5035154;28;20056;-76
2021/08/18 01:24:26;;;;;;;15.63;9.07;;;14.80;92.40;;;;;;5034078;28;20511;-77
2021/08/18 01:26:53;;;;;;;13.18;8.07;;;14.80;92.30;;;;;;5035817;28;20073;-77
2021/08/18 01:29:21;;;;;;;15.02;8.02;;;14.80;92.30;;;;;;5035499;28;20049;-77
2021/08/18 01:31:51;;;;;;;13.00;7.57;;;14.80;92.20;;;;;;5035869;28;20056;-78
2021/08/18 01:34:19;;;;;;;17.98;7.20;;;14.80;92.10;;;;;;5034048;28;20056;-77
2021/08/18 01:36:46;;;;;;;17.23;6.32;;;14.80;92.10;;;;;;5035287;28;20207;-77
2021/08/18 01:39:14;;;;;;;13.75;7.32;;;14.80;92.10;;;;;;5034939;28;20491;-77
2021/08/18 01:41:42;;;;;;;18.30;7.80;;;14.70;92.10;;;;;;5033789;28;20049;-77
2021/08/18 01:44:09;;;;;;;19.10;7.43;;;14.70;92.10;;;;;;5033583;28;20479;-74
2021/08/18 01:46:37;;;;;;;18.27;6.93;;;14.70;92.20;;;;;;5034826;28;20072;-75
2021/08/18 01:49:04;;;;;;;14.32;7.05;;;14.70;92.20;;;;;;5034529;28;20399;-77
2021/08/18 01:51:32;;;;;;;15.95;6.80;;;14.70;92.20;;;;;;5034676;28;20049;-75
2021/08/18 01:54:00;;;;;;;18.60;6.80;;;14.70;92.10;;;;;;5034732;28;20046;-75
2021/08/18 01:56:27;;;;;;;15.27;6.43;;;14.70;92.20;;;;;;5033483;28;20045;-76
2021/08/18 01:58:55;;;;;;;14.32;7.05;;;14.70;92.10;;;;;;5033292;28;20049;-76
2021/08/18 02:01:22;;;;;;;16.25;6.85;;;14.70;92.10;;;;;;5034126;28;20437;-76
2021/08/18 02:03:50;;;;;;;19.27;6.65;;;14.70;92.10;;;;;;5033243;28;20056;-76
2021/08/18 02:06:18;;;;;;;20.20;7.28;;;14.60;92.00;;;;;;5034639;28;20041;-76
2021/08/18 02:08:46;;;;;;;17.60;6.82;;;14.60;92.10;;;;;;5034613;28;20049;-75
2021/08/18 02:11:13;;;;;;;12.60;6.28;;;14.60;92.10;;;;;;5034434;28;20352;-76
2021/08/18 02:13:41;;;;;;;14.60;6.65;;;14.50;92.10;;;;;;5034150;28;20391;-76
2021/08/18 02:16:09;;;;;;;19.88;7.10;;;14.50;92.20;;;;;;5034314;28;20052;-76
2021/08/18 02:18:36;;;;;;;18.38;7.45;;;14.50;92.20;;;;;;5032867;28;20057;-75
2021/08/18 02:21:04;;;;;;;15.40;6.72;;;14.40;92.30;;;;;;5034253;28;20046;-76
2021/08/18 02:23:31;;;;;;;21.73;7.15;;;14.50;92.30;;;;;;5033987;28;20042;-76
2021/08/18 02:25:59;;;;;;;14.73;6.90;;;14.40;92.40;;;;;;5034172;28;20402;-75
2021/08/18 02:28:27;;;;;;;21.90;7.93;;;14.40;92.40;;;;;;5034037;28;20056;-76
2021/08/18 02:30:54;;;;;;;14.20;6.85;;;14.40;92.40;;;;;;5033856;28;20053;-75
2021/08/18 02:33:25;;;;;;;15.75;6.63;;;14.40;92.50;;;;;;5032839;28;20041;-75
2021/08/18 02:35:52;;;;;;;15.40;6.78;;;14.40;92.50;;;;;;5016357;28;20057;-75
2021/08/18 02:38:20;;;;;;;13.85;5.93;;;14.40;92.50;;;;;;5033872;28;20037;-75
2021/08/18 02:40:48;;;;;;;14.63;6.93;;;14.40;92.50;;;;;;5033863;28;20056;-75
2021/08/18 02:43:15;;;;;;;20.23;7.22;;;14.40;92.40;;;;;;5033696;28;20041;-75
2021/08/18 02:45:43;;;;;;;24.75;7.25;;;14.40;92.40;;;;;;5033615;28;20061;-75
2021/08/18 02:48:11;;;;;;;22.02;7.68;;;14.30;92.40;;;;;;5033967;28;20479;-75
2021/08/18 02:50:38;;;;;;;18.58;7.05;;;14.30;92.30;;;;;;5033659;28;20053;-75
2021/08/18 02:53:06;;;;;;;22.00;6.53;;;14.30;92.30;;;;;;5033755;28;20471;-75
2021/08/18 02:55:34;;;;;;;18.48;5.53;;;14.30;92.20;;;;;;5033266;28;20433;-75
2021/08/18 02:58:01;;;;;;;15.25;4.82;;;14.30;92.10;;;;;;5033567;28;20049;-75
2021/08/18 03:00:29;;;;;;;16.35;5.13;;;14.30;92.00;;;;;;5033280;28;20430;-76
2021/08/18 03:02:57;;;;;;;17.25;4.30;;;14.30;91.90;;;;;;5033405;28;20541;-77
2021/08/18 03:05:25;;;;;;;14.80;4.38;;;14.30;91.80;;;;;;5033308;28;20407;-76
2021/08/18 03:07:53;;;;;;;16.42;4.70;;;14.30;91.70;;;;;;5033375;28;20057;-76
2021/08/18 03:10:20;;;;;;;14.50;4.38;;;14.20;91.70;;;;;;5033266;28;20049;-76
2021/08/18 03:12:48;;;;;;;9.95;4.20;;;14.20;91.70;;;;;;5032796;28;20057;-76
2021/08/18 03:15:16;;;;;;;12.32;4.10;;;14.30;91.70;;;;;;5032575;28;20471;-76
2021/08/18 03:17:43;;;;;;;11.65;3.80;;;14.20;91.60;;;;;;5033682;28;20068;-76
2021/08/18 03:20:12;;;;;;;12.73;3.53;;;14.20;91.50;;;;;;5033092;28;20045;-76
2021/08/18 03:22:39;;;;;;;13.50;3.50;;;14.20;91.40;;;;;;5031616;28;20060;-77
2021/08/18 03:25:08;;;;;;;11.52;3.13;;;14.20;91.40;;;;;;5033444;28;20383;-76
2021/08/18 03:27:36;;;;;;;8.60;3.40;;;14.20;91.30;;;;;;5033148;28;20045;-78
2021/08/18 03:30:05;;;;;;;9.20;3.22;;;14.10;91.30;;;;;;5033345;28;20056;-76
2021/08/18 03:32:33;;;;;;;9.05;2.85;;;14.10;91.20;;;;;;5033085;28;20108;-76
2021/08/18 03:35:00;;;;;;;10.65;2.72;;;14.10;91.00;;;;;;5033372;28;20050;-77
2021/08/18 03:37:28;;;;;;;9.50;3.00;;;14.00;91.00;;;;;;5033261;28;20049;-76
2021/08/18 03:39:56;;;;;;;6.47;2.60;;;14.00;91.10;;;;;;5032652;28;20064;-76
2021/08/18 03:42:23;;;;;;;12.73;2.85;;;14.00;91.10;;;;;;5032892;28;20389;-76
2021/08/18 03:44:51;;;;;;;15.82;3.10;;;13.90;90.80;;;;;;5033280;28;20053;-77
2021/08/18 03:47:18;;;;;;;3.78;2.38;;;13.90;90.80;;;;;;5032577;28;20053;-76
2021/08/18 03:49:45;;;;;;;11.05;2.53;;;13.80;90.70;;;;;;5032629;28;20049;-77
2021/08/18 03:52:13;;;;;;;14.02;3.53;;;13.80;90.50;;;;;;5031382;28;20056;-77
2021/08/18 03:54:41;;;;;;;6.85;2.40;;;13.80;90.40;;;;;;5049346;28;20048;-77
2021/08/18 03:57:08;;;;;;;10.15;2.72;;;13.80;90.40;;;;;;5052361;28;20056;-77
2021/08/18 03:59:36;;;;;;;5.85;2.30;;;13.80;90.30;;;;;;5052063;28;20487;-77
2021/08/18 04:02:04;;;;;;;5.75;2.05;;;13.70;90.10;;;;;;5052204;28;20048;-77
2021/08/18 04:04:31;;;;;;;8.18;2.42;;;13.70;89.80;;;;;;5050844;28;20049;-78
2021/08/18 04:06:59;;;;;;;2.60;1.80;;;13.60;89.70;;;;;;5052251;28;20072;-77
2021/08/18 04:09:26;;;;;;;4.20;1.83;;;13.60;89.70;;;;;;5052593;28;20064;-77
2021/08/18 04:12:16;;;;;;;5.82;2.30;;;13.60;89.60;;;;;;5051788;28;20405;-78
2021/08/18 04:14:43;;;;;;;8.35;2.15;;;13.60;89.50;;;;;;5052010;28;20044;-77
2021/08/18 04:17:11;;;;;;;7.88;2.33;;;13.50;89.60;;;;;;5051357;28;20049;-77
2021/08/18 04:19:38;;;;;;;4.88;1.77;;;13.50;89.50;;;;;;5052483;28;20405;-77
2021/08/18 04:22:07;;;;;;;7.75;2.22;;;13.50;89.50;;;;;;5052098;28;20486;-77
2021/08/18 04:24:35;;;;;;;6.05;2.20;;;13.50;89.60;;;;;;5051871;28;20053;-77
2021/08/18 04:27:04;;;;;;;8.10;2.30;;;13.50;89.60;;;;;;5051842;28;20053;-77
2021/08/18 04:29:31;;;;;;;4.03;2.20;;;13.40;89.60;;;;;;5051828;28;20056;-77
2021/08/18 04:31:59;;;;;;;16.02;3.10;;;13.40;89.70;;;;;;5034161;28;20064;-77
2021/08/18 04:34:26;;;;;;;4.93;1.95;;;13.40;89.70;;;;;;5052056;28;20044;-75
2021/08/18 04:36:54;;;;;;;3.75;2.10;;;13.30;89.60;;;;;;5051845;28;20057;-76
2021/08/18 04:39:21;;;;;;;3.47;2.17;;;13.30;89.60;;;;;;5051922;28;20508;-76
2021/08/18 04:41:49;;;;;;;2.92;2.20;;;13.30;89.60;;;;;;5051592;28;20053;-76
2021/08/18 04:44:16;;;;;;;2.92;2.03;;;13.30;89.60;;;;;;5051869;28;20045;-76
2021/08/18 04:46:44;;;;;;;7.65;2.22;;;13.30;89.60;;;;;;5051872;28;20406;-76
2021/08/18 04:49:11;;;;;;;3.67;1.90;;;13.30;89.70;;;;;;5050519;28;20517;-76
2021/08/18 04:51:39;;;;;;;5.88;2.10;;;13.20;89.70;;;;;;5051754;28;20506;-76
2021/08/18 04:54:07;;;;;;;4.85;1.85;;;13.20;89.80;;;;;;5050590;28;20049;-76
2021/08/18 04:56:34;;;;;;;5.95;2.00;;;13.20;89.80;;;;;;5052060;28;20517;-76
2021/08/18 04:59:02;;;;;;;5.70;2.10;;;13.10;89.90;;;;;;5051676;28;20344;-76
2021/08/18 05:01:29;;;;;;;4.38;2.70;;;13.10;89.90;;;;;;5051714;28;20060;-75
2021/08/18 05:03:57;;;;;;;6.32;2.60;;;13.10;90.00;;;;;;5051574;28;20048;-76
2021/08/18 05:06:25;;;;;;;6.90;2.40;;;13.00;90.10;;;;;;5051580;28;20509;-76
2021/08/18 05:08:52;;;;;;;5.55;1.70;;;13.00;90.20;;;;;;5050405;28;20049;-75
2021/08/18 05:11:20;;;;;;;7.10;2.35;;;13.00;90.40;;;;;;5051386;28;20367;-76
2021/08/18 05:13:47;;;;;;;3.38;2.15;;;12.90;90.40;;;;;;5051226;28;20434;-76
2021/08/18 05:16:15;;;;;;;5.15;2.20;;;12.90;90.50;;;;;;5051457;28;20048;-75
2021/08/18 05:18:42;;;;;;;2.88;2.22;;;12.90;90.60;;;;;;5051461;28;20581;-75
2021/08/18 05:21:10;;;;;;;8.75;2.53;;;12.90;90.60;;;;;;5053075;28;20502;-76
2021/08/18 05:23:38;;;;;;;6.35;2.35;;;12.90;90.70;;;;;;5045747;28;20053;-76
2021/08/18 05:26:05;;;;;;;4.68;2.45;;;12.90;90.80;;;;;;5045630;28;20044;-76
2021/08/18 05:28:33;;;;;;;8.57;2.75;;;12.90;90.90;;;;;;5045902;28;20402;-76
2021/08/18 05:33:53;;;;;;;7.68;2.75;;;12.90;91.00;;;;;;5051720;28;20056;-76
2021/08/18 05:36:22;;;;;;;6.55;2.85;;;12.90;91.20;;;;;;5051573;28;20056;-76
2021/08/18 05:38:49;;;;;;;4.70;2.70;;;12.80;91.30;;;;;;5054714;28;20041;-75
2021/08/18 05:41:17;;;;;;;3.92;2.88;;;12.80;91.40;;;;;;5054902;28;20053;-76
2021/08/18 05:43:44;;;;;;;6.90;2.70;;;12.80;91.50;;;;;;5053563;28;20494;-75
2021/08/18 05:46:12;;;;;;;5.95;3.13;;;12.80;91.60;;;;;;5053746;28;20047;-75
2021/08/18 05:48:40;;;;;;;7.28;2.90;;;12.80;91.60;;;;;;5053434;28;20045;-75
2021/08/18 05:51:08;;;;;;;6.82;3.28;;;12.80;91.60;;;;;;5053700;28;20056;-74
2021/08/18 05:53:36;;;;;;;8.88;3.15;;;12.80;91.70;;;;;;5054517;28;20057;-74
2021/08/18 05:56:04;;;;;;;4.60;2.67;;;12.80;91.80;;;;;;5054427;28;20049;-75
2021/08/18 05:58:31;;;;;;;4.88;2.88;;;12.80;91.80;;;;;;5054522;28;20053;-75
2021/08/18 06:00:59;;;;;;;6.90;2.70;;;12.80;91.80;;;;;;5052978;28;20505;-75
2021/08/18 06:03:27;;;;;;;7.20;3.05;;;12.80;91.90;;;;;;5053049;28;20041;-74
2021/08/18 06:05:54;;;;;;;10.02;3.10;;;12.80;91.90;;;;;;5053161;28;20529;-74
2021/08/18 06:08:22;;;;;;;8.93;3.25;;;12.80;91.90;;;;;;5054407;28;20045;-75
2021/08/18 06:10:49;;;;;;;7.50;4.00;;;12.80;91.90;;;;;;5054076;28;20053;-75
2021/08/18 06:13:17;;;;;;;8.85;4.13;;;12.80;92.00;;;;;;5054134;28;20056;-74
2021/08/18 06:15:44;;;;;;;9.63;4.78;;;12.80;92.00;;;;;;5054176;28;20056;-73
2021/08/18 06:18:12;;;;;;;11.45;5.43;;;12.80;92.00;;;;;;5054077;28;20060;-75
2021/08/18 06:20:39;;;;;;;6.93;5.82;;;12.80;92.10;;;;;;5054071;28;20541;-75
2021/08/18 06:23:08;;;;;;;13.60;4.80;;;12.70;92.10;;;;;;5052694;28;20056;-75
2021/08/18 06:25:35;;;;;;;6.57;4.28;;;12.80;92.10;;;;;;5054152;28;20058;-75
2021/08/18 06:28:03;;;;;;;10.93;4.00;;;12.80;92.10;;;;;;5052764;28;20045;-75
2021/08/18 06:30:31;;;;;;;9.63;3.28;;;12.80;92.10;;;;;;5053962;28;20491;-75
2021/08/18 06:32:59;;;;;;;8.52;3.88;;;12.70;92.00;;;;;;5053741;28;20041;-75
2021/08/18 06:35:34;;;;;;;7.07;3.70;;;12.70;92.10;;;;;;5052610;28;20057;-75
2021/08/18 06:38:02;;;;;;;6.03;3.58;;;12.70;92.10;;;;;;5053515;28;20052;-75
2021/08/18 06:40:29;;;;;;;5.95;3.13;;;12.80;92.20;;;;;;5054014;28;20451;-75
2021/08/18 06:42:57;;;;;;;3.50;3.03;;;12.80;92.30;;;;;;5053475;28;20057;-75
2021/08/18 06:45:25;;;;;;;4.47;2.60;;;12.80;92.20;;;;;;5052636;28;20473;-75
2021/08/18 06:47:52;;;;;;;5.28;3.25;;;12.80;92.20;;;;;;5053602;28;20055;-75
2021/08/18 06:50:20;;;;;;;5.50;3.10;;;12.80;92.20;;;;;;5053716;28;20394;-75
2021/08/18 06:52:47;;;;;;;9.82;2.90;;;12.80;92.20;;;;;;5053201;28;20052;-74
2021/08/18 06:55:16;;;;;;;2.97;2.10;;;12.90;92.20;;;;;;5051903;28;20053;-74
2021/08/18 06:57:43;;;;;;;4.15;2.90;;;12.90;92.20;;;;;;5053350;28;20403;-75
2021/08/18 07:00:11;;;;;;;4.65;3.10;;;12.90;92.20;;;;;;5053115;28;20041;-74
2021/08/18 07:02:45;;;;;;;4.97;2.47;;;13.00;92.20;;;;;;5053311;28;20138;-74
2021/08/18 07:05:16;;;;;;;4.53;2.92;;;13.00;92.20;;;;;;5053357;28;20041;-74
2021/08/18 07:07:43;;;;;;;6.35;3.80;;;13.00;92.20;;;;;;5051770;28;20044;-74
2021/08/18 07:10:13;;;;;;;6.90;3.55;;;13.00;92.20;;;;;;5052892;28;20140;-74
2021/08/18 07:12:41;;;;;;;4.90;3.25;;;13.00;92.20;;;;;;5052831;28;20052;-73
2021/08/18 07:15:09;;;;;;;7.20;3.67;;;13.10;92.20;;;;;;5052001;28;20402;-74
2021/08/18 07:17:36;;;;;;;5.63;3.17;;;13.10;92.20;;;;;;5053529;28;20243;-74
2021/08/18 07:20:04;;;;;;;6.47;3.20;;;13.20;92.20;;;;;;5051612;28;20057;-74
2021/08/18 07:22:32;;;;;;;8.77;3.30;;;13.30;92.20;;;;;;5051806;28;20045;-74
2021/08/18 07:24:59;;;;;;;7.60;3.15;;;13.30;92.00;;;;;;5052882;28;20064;-75
2021/08/18 07:27:28;;;;;;;6.63;3.00;;;13.40;91.80;;;;;;5052859;28;20063;-75
2021/08/18 07:29:57;;;;;;;8.85;2.92;;;13.40;91.70;;;;;;5051833;28;20040;-74
2021/08/18 07:32:26;;;;;;;6.57;3.00;;;13.40;91.60;;;;;;5052062;28;20545;-76
2021/08/18 07:34:53;;;;;;;6.45;2.80;;;13.30;91.60;;;;;;5051752;28;20064;-75
2021/08/18 07:37:22;;;;;;;6.32;2.90;;;13.40;91.60;;;;;;5052593;28;20049;-74
2021/08/18 07:39:49;;;;;;;10.68;3.22;;;13.40;91.60;;;;;;5051723;28;20049;-75
2021/08/18 07:42:17;;;;;;;5.13;2.63;;;13.50;91.70;;;;;;5052739;28;20390;-75
2021/08/18 07:44:44;;;;;;;3.85;2.83;;;13.60;91.60;;;;;;5051229;28;20052;-76
2021/08/18 07:47:12;;;;;;;6.00;2.75;;;13.60;91.40;;;;;;5052917;28;20056;-76
2021/08/18 07:49:40;;;;;;;6.28;3.08;;;13.80;91.30;;;;;;5052934;28;20056;-76
2021/08/18 07:52:08;;;;;;;8.57;3.10;;;13.80;91.10;;;;;;5051270;28;20068;-76
2021/08/18 07:54:35;;;;;;;3.92;2.97;;;13.80;91.10;;;;;;5034497;28;20049;-76
2021/08/18 07:57:03;;;;;;;6.85;3.28;;;13.90;91.10;;;;;;5050763;28;20060;-76
2021/08/18 07:59:31;;;;;;;6.43;2.10;;;13.90;90.90;;;;;;5040569;28;20050;-76
2021/08/18 08:01:59;;;;;;;4.63;2.72;;;14.00;90.70;;;;;;5034641;28;20041;-76
2021/08/18 08:04:27;;;;;;;6.57;2.80;;;14.00;90.60;;;;;;5032370;28;20056;-76
2021/08/18 08:06:55;;;;;;;3.50;2.95;;;14.00;90.20;;;;;;5032500;28;20402;-77
2021/08/18 08:09:23;;;;;;;7.55;3.72;;;14.00;90.30;;;;;;5032163;28;20048;-76
2021/08/18 08:11:50;;;;;;;4.10;3.03;;;14.00;90.40;;;;;;5032156;28;20049;-76
2021/08/18 08:14:18;;;;;;;4.45;2.38;;;13.90;90.50;;;;;;5032142;28;20053;-76
2021/08/18 08:16:45;;;;;;;4.40;2.58;;;13.90;90.50;;;;;;5030944;28;20053;-76
2021/08/18 08:19:13;;;;;;;6.30;2.70;;;13.90;90.30;;;;;;5032066;28;20049;-76
2021/08/18 08:21:41;;;;;;;7.70;3.30;;;13.90;90.50;;;;;;5031953;28;20415;-76
2021/08/18 08:24:08;;;;;;;3.38;2.20;;;14.10;90.70;;;;;;5032172;28;20053;-76
2021/08/18 08:26:36;;;;;;;5.60;2.20;;;14.20;90.40;;;;;;5030938;28;20376;-76
2021/08/18 08:29:03;;;;;;;4.28;1.73;;;14.30;90.20;;;;;;5032111;28;20049;-75
2021/08/18 08:31:31;;;;;;;5.53;2.00;;;14.40;89.90;;;;;;5032221;28;20062;-76
2021/08/18 08:33:59;;;;;;;7.43;2.08;;;14.50;89.70;;;;;;5031541;28;20376;-76
2021/08/18 08:36:26;;;;;;;3.97;1.58;;;14.60;89.80;;;;;;5030747;28;20049;-75
2021/08/18 08:38:54;;;;;;;2.33;1.23;;;14.60;89.60;;;;;;5030712;28;20049;-74
2021/08/18 08:41:22;;;;;;;6.38;1.23;;;14.60;89.30;;;;;;5030718;28;20395;-74
2021/08/18 08:43:49;;;;;;;1.35;1.00;;;14.60;89.20;;;;;;5014208;28;20064;-74
2021/08/18 08:46:17;;;;;;;1.65;1.10;;;14.60;89.30;;;;;;5031024;28;20045;-73
2021/08/18 08:48:44;;;;;;;1.73;0.75;;;14.60;89.50;;;;;;5031802;28;20054;-74
2021/08/18 08:51:13;;;;;;;1.15;0.73;;;14.70;89.40;;;;;;5031730;28;20045;-74
2021/08/18 08:53:40;;;;;;;1.17;0.90;;;14.70;89.20;;;;;;5030686;28;20072;-75
2021/08/18 08:56:08;;;;;;;4.38;1.05;;;14.70;89.30;;;;;;5032231;28;20046;-74
2021/08/18 08:58:36;;;;;;;3.28;0.93;;;14.80;89.20;;;;;;5031714;28;20056;-75
2021/08/18 09:01:04;;;;;;;2.70;1.13;;;14.90;89.10;;;;;;5030419;28;20053;-74
2021/08/18 09:03:35;;;;;;;1.73;1.33;;;15.00;89.00;;;;;;5031654;28;20049;-75
2021/08/18 09:06:07;;;;;;;3.63;2.08;;;15.30;88.90;;;;;;5030436;28;20522;-75
2021/08/18 09:08:50;;;;;;;3.05;2.22;;;15.30;88.40;;;;;;5031580;28;20045;-75
2021/08/18 09:11:20;;;;;;;2.42;1.50;;;15.40;88.10;;;;;;5031712;28;20060;-75
2021/08/18 09:13:52;;;;;;;6.68;1.88;;;15.30;88.00;;;;;;5035463;28;20080;-74
2021/08/18 09:16:29;;;;;;;34.08;3.28;;;15.30;88.10;;;;;;5035314;28;20058;-75
2021/08/18 09:18:57;;;;;;;2.33;0.90;;;15.30;87.90;;;;;;5035209;28;20045;-74
2021/08/18 09:21:34;;;;;;;6.70;1.40;;;15.40;87.80;;;;;;5035230;28;20046;-75
2021/08/18 09:24:11;;;;;;;1.85;1.00;;;15.50;87.60;;;;;;5034026;28;20111;-75
2021/08/18 09:26:41;;;;;;;1.73;1.02;;;15.50;87.60;;;;;;5034115;28;20391;-74
2021/08/18 09:29:09;;;;;;;133.10;7.60;;;15.50;87.60;;;;;;5035129;28;20053;-74
2021/08/18 09:31:36;;;;;;;14.93;2.22;;;15.50;87.50;;;;;;5034996;28;20057;-75
2021/08/18 09:34:11;;;;;;;3.92;1.25;;;15.50;87.40;;;;;;5035491;28;20053;-75
2021/08/18 09:36:38;;;;;;;1.02;0.77;;;15.50;87.30;;;;;;5034185;28;20042;-75
2021/08/18 09:39:23;;;;;;;1.73;0.88;;;15.30;87.30;;;;;;5035076;28;20407;-74
2021/08/18 09:41:51;;;;;;;2.03;1.10;;;15.20;87.50;;;;;;5033653;28;20050;-74
2021/08/18 09:44:19;;;;;;;2.80;1.15;;;15.10;87.70;;;;;;5034992;28;20049;-75
2021/08/18 09:47:06;;;;;;;8.57;1.40;;;15.10;87.80;;;;;;5034846;28;20046;-75
2021/08/18 09:49:36;;;;;;;5.80;1.50;;;15.00;87.80;;;;;;5034791;28;20045;-76
2021/08/18 09:52:03;;;;;;;5.25;1.30;;;15.10;87.60;;;;;;5034843;28;20368;-75
2021/08/18 09:54:37;;;;;;;3.00;1.00;;;15.20;87.70;;;;;;5034678;28;20487;-76
2021/08/18 09:57:09;;;;;;;1.77;1.08;;;15.30;87.40;;;;;;5034769;28;20506;-75
2021/08/18 09:59:43;;;;;;;3.30;1.02;;;15.40;87.40;;;;;;5033707;28;20072;-75
2021/08/18 10:02:13;;;;;;;3.42;1.30;;;15.50;87.20;;;;;;5034458;28;20064;-76
2021/08/18 10:04:41;;;;;;;2.78;1.13;;;15.60;87.10;;;;;;5034523;28;20418;-76
2021/08/18 10:07:08;;;;;;;2.72;1.23;;;15.70;86.90;;;;;;5033302;28;20050;-76
2021/08/18 10:09:36;;;;;;;4.57;1.02;;;15.80;86.60;;;;;;5034654;28;20049;-76
2021/08/18 10:12:06;;;;;;;1.77;1.02;;;15.80;86.10;;;;;;5034369;28;20041;-77
2021/08/18 10:14:34;;;;;;;6.40;1.33;;;15.80;85.70;;;;;;5034380;28;20053;-76
2021/08/18 10:17:02;;;;;;;2.28;1.50;;;15.80;85.80;;;;;;5033230;28;20065;-76
2021/08/18 10:19:30;;;;;;;1.92;1.17;;;15.70;85.90;;;;;;5034500;28;20057;-77
2021/08/18 10:22:01;;;;;;;2.38;1.30;;;15.70;86.00;;;;;;5033076;28;20038;-77
2021/08/18 10:24:34;;;;;;;1.73;1.23;;;15.60;86.20;;;;;;5032649;28;20403;-77
2021/08/18 10:27:06;;;;;;;2.72;1.42;;;15.70;86.20;;;;;;5034232;28;20042;-76
2021/08/18 10:29:36;;;;;;;3.08;1.35;;;15.70;86.40;;;;;;5034503;28;20399;-76
2021/08/18 10:32:12;;;;;;;3.33;1.00;;;15.80;86.30;;;;;;5034147;28;20050;-77
2021/08/18 10:34:43;;;;;;;2.00;1.13;;;15.90;85.90;;;;;;5033128;28;20499;-77
2021/08/18 10:37:21;;;;;;;1.13;1.02;;;15.90;85.70;;;;;;5034025;28;20406;-77
2021/08/18 10:39:52;;;;;;;2.08;1.05;;;16.10;85.20;;;;;;5033837;28;20414;-77
2021/08/18 10:42:33;;;;;;;3.67;1.00;;;16.30;84.70;;;;;;5032178;28;20457;-75
2021/08/18 10:45:01;;;;;;;2.80;1.02;;;16.50;84.30;;;;;;5032367;28;20430;-77
2021/08/18 10:47:34;;;;;;;3.08;1.02;;;16.80;84.00;;;;;;5033965;28;20164;-76
2021/08/18 10:50:16;;;;;;;1.50;1.08;;;17.20;82.80;;;;;;5033756;28;20053;-77
2021/08/18 10:52:44;;;;;;;2.78;1.13;;;17.40;81.60;;;;;;5033626;28;20060;-76
2021/08/18 10:55:13;;;;;;;1.65;0.98;;;17.50;81.00;;;;;;5033721;28;20242;-76
2021/08/18 10:57:58;;;;;;;1.70;1.08;;;17.50;80.50;;;;;;5033596;28;20051;-76
2021/08/18 11:00:37;;;;;;;4.47;1.45;;;17.40;80.60;;;;;;5033399;28;20060;-77
2021/08/18 11:03:22;;;;;;;1.35;0.95;;;17.20;80.30;;;;;;5033156;28;20053;-78
2021/08/18 11:05:51;;;;;;;3.35;0.90;;;17.00;80.30;;;;;;5033491;28;20064;-78
2021/08/18 11:08:38;;;;;;;2.83;1.00;;;16.90;80.60;;;;;;5033744;28;20057;-78
2021/08/18 11:11:09;;;;;;;2.10;0.98;;;16.90;80.60;;;;;;5033866;28;20064;-78
2021/08/18 11:13:44;;;;;;;1.50;1.00;;;17.00;81.00;;;;;;5033286;28;20053;-78
2021/08/18 11:16:24;;;;;;;1.55;1.00;;;17.10;80.50;;;;;;5033507;28;20056;-76
2021/08/18 11:19:06;;;;;;;4.18;0.88;;;17.30;80.20;;;;;;5033432;28;20053;-77
2021/08/18 11:21:36;;;;;;;3.83;0.93;;;17.60;78.60;;;;;;5033036;28;20057;-76
2021/08/18 11:24:16;;;;;;;1.77;1.20;;;17.80;78.40;;;;;;5032761;28;20046;-76
2021/08/18 11:26:45;;;;;;;7.13;1.20;;;17.90;78.00;;;;;;5015673;28;20069;-76
2021/08/18 11:29:19;;;;;;;3.78;1.40;;;17.80;77.50;;;;;;5032941;28;20475;-77
2021/08/18 11:31:53;;;;;;;1.60;1.00;;;17.60;78.00;;;;;;5033309;28;20056;-78
2021/08/18 11:34:28;;;;;;;3.45;1.50;;;17.30;78.00;;;;;;5032713;28;20041;-78
2021/08/18 11:37:07;;;;;;;2.92;1.67;;;17.10;78.80;;;;;;5031998;28;20060;-77
2021/08/18 11:39:38;;;;;;;3.92;1.50;;;17.00;79.50;;;;;;5033226;28;20053;-77
2021/08/18 11:42:24;;;;;;;5.10;1.58;;;17.10;79.50;;;;;;5032517;28;20061;-77
2021/08/18 11:45:04;;;;;;;2.35;1.40;;;17.20;79.20;;;;;;5031748;28;20491;-76
2021/08/18 11:47:33;;;;;;;1.85;1.10;;;17.20;78.70;;;;;;5031883;28;20053;-78
2021/08/18 11:50:02;;;;;;;1.30;0.93;;;17.00;78.60;;;;;;5032669;28;20052;-77
2021/08/18 11:52:30;;;;;;;7.68;1.27;;;16.90;78.90;;;;;;5032690;28;20045;-77
2021/08/18 11:54:59;;;;;;;6.05;1.20;;;16.80;79.00;;;;;;5032437;28;20717;-77
2021/08/18 11:57:27;;;;;;;2.85;1.15;;;16.80;79.50;;;;;;5030320;28;20046;-76
2021/08/18 11:59:58;;;;;;;1.70;1.20;;;16.90;79.40;;;;;;5031620;28;20049;-76
2021/08/18 12:02:30;;;;;;;4.05;1.30;;;17.00;79.30;;;;;;5031793;28;20060;-82
2021/08/18 12:05:04;;;;;;;5.22;1.67;;;17.30;79.10;;;;;;5017092;28;20057;-85
2021/08/18 12:07:36;;;;;;;3.05;1.25;;;17.50;78.80;;;;;;5002721;28;20048;-88
2021/08/18 12:10:18;;;;;;;6.88;1.60;;;17.70;77.60;;;;;;5044019;28;20067;-80
2021/08/18 12:13:06;;;;;;;1.88;1.38;;;17.60;77.20;;;;;;5050150;28;20410;-79
2021/08/18 12:15:42;;;;;;;3.28;1.23;;;17.50;77.00;;;;;;5043335;28;20505;-79
2021/08/18 12:18:30;;;;;;;2.03;1.25;;;17.30;77.40;;;;;;5031713;28;20053;-79
2021/08/18 12:21:17;;;;;;;1.55;1.20;;;17.10;77.60;;;;;;5063351;28;20060;-82
2021/08/18 12:23:49;;;;;;;2.42;1.02;;;17.00;78.10;;;;;;5048028;28;20064;-80
2021/08/18 12:26:32;;;;;;;2.72;1.02;;;16.90;78.60;;;;;;5049339;28;20052;-79
2021/08/18 12:29:02;;;;;;;3.53;1.25;;;16.90;78.70;;;;;;5051684;28;20049;-79
2021/08/18 12:32:01;;;;;;;5.53;1.48;;;17.00;78.50;;;;;;5050943;28;20051;-81
2021/08/18 12:34:39;;;;;;;3.00;1.45;;;17.30;78.40;;;;;;5034520;28;20053;-81
2021/08/18 12:37:27;;;;;;;2.33;1.08;;;17.70;77.80;;;;;;5050913;28;20045;-82
2021/08/18 12:40:10;;;;;;;1.58;1.25;;;18.10;77.00;;;;;;5051457;28;20287;-81
2021/08/18 12:42:43;;;;;;;1.85;1.40;;;18.30;75.60;;;;;;5051724;28;20045;-80
2021/08/18 12:45:15;;;;;;;;;;;18.40;75.40;;;;;;5052552;28;20041;-81
2021/08/18 12:47:45;;;;;;;3.03;1.40;;;18.30;75.20;;;;;;5053783;28;19921;-80
2021/08/18 12:50:26;;;;;;;2.08;1.40;;;18.10;74.80;;;;;;5053712;28;20534;-80
2021/08/18 12:52:55;;;;;;;3.03;1.50;;;17.80;75.40;;;;;;5054453;28;20055;-80
2021/08/18 12:55:24;;;;;;;3.67;1.50;;;17.60;76.30;;;;;;5054229;28;20536;-80
2021/08/18 12:57:52;;;;;;;2.08;1.70;;;17.40;76.90;;;;;;5055661;28;20064;-80